Últimos artigos:
Falta de som no Morse Runner em Linux?
Touchpad tapping, em Debian Buster (10)
Acender um LED com a tensão da rede eléctrica
Programação do Yaesu FT-60 para os EasySats
AO-91 (RadFxSat Fox-1B) está no Ar!
CT7AFR DIY CW-Keyer
Últimas fotos:
Últimos METARs:
LPAZ 112030Z 04009KT 9999 FEW022 22/17 Q10...
LPFR 112030Z 30013KT CAVOK 23/17 Q1012=
LPHR 112000Z 05008KT 9999 FEW018 SCT035 24...
LPLA 112000Z /////KT 9999 FEW028 23/16 Q10...
LPMA 112030Z 02010KT 350V060 9999 SCT015 2...
LPPD 112030Z 02009KT 350V050 9999 FEW025 2...
LPPR 112030Z 00000KT CAVOK 18/17 Q1012=
LPPS 112030Z 02011KT 9999 FEW015 22/17 Q10...
LPPT 112030Z 31008KT 280V340 9999 FEW010 S...
Últimos QSOs:
2020/06/05-17:40 6m IK6DTB (GIUSEPPE)
2020/06/05-17:35 6m EA8OM (HEIJO)
2020/06/05-17:31 6m I0SNY (NICOLA)
2020/06/05-17:27 6m DF4WC (ANDREAS)
2020/06/05-17:13 6m DO3EF (PATRICK)
2020/06/05-17:09 6m DK7ZT (BERND)
  UTC
Rpi-6 CPU Temp: 454642.0 °C (251812Z)
IN51oq 2110Z /////KT //// 26/17 Q1013=
138314